Time;durP1;ratioP1;P1;durP2;ratioP2;P2;SDS_P1;SDS_P2;PMS_P1;PMS_P2;Temp;Humidity;BMP_temperature;BMP_pressure;BME280_temperature;BME280_humidity;BME280_pressure;Samples;Min_cycle;Max_cycle;Signal;HPM_P1;HPM_P2
2021/08/17 00:01:47;;;;;;;;;;;11.40;99.90;;;;;;5091459;28;19915;-78
2021/08/17 00:04:12;;;;;;;;;;;11.40;99.90;;;;;;5091697;28;19984;-78
2021/08/17 00:06:38;;;;;;;;;;;11.40;99.90;;;;;;5091528;28;19962;-78
2021/08/17 00:09:03;;;;;;;;;;;11.30;99.90;;;;;;5091522;28;19958;-78
2021/08/17 00:11:29;;;;;;;;;;;11.30;99.90;;;;;;5096417;28;20292;-78
2021/08/17 00:13:55;;;;;;;;;;;11.30;99.90;;;;;;5111666;28;19907;-79
2021/08/17 00:16:20;;;;;;;;;;;11.30;99.90;;;;;;5111385;28;19908;-79
2021/08/17 00:18:45;;;;;;;;;;;11.20;99.90;;;;;;5111899;28;19943;-79
2021/08/17 00:21:12;;;;;;;;;;;11.30;99.90;;;;;;5111782;28;19982;-79
2021/08/17 00:23:38;;;;;;;;;;;11.20;99.90;;;;;;5111316;28;19908;-78
2021/08/17 00:26:03;;;;;;;;;;;11.20;99.90;;;;;;5111160;28;19908;-78
2021/08/17 00:28:29;;;;;;;;;;;11.20;99.90;;;;;;5111599;28;19918;-78
2021/08/17 00:30:54;;;;;;;;;;;11.10;99.90;;;;;;5111474;28;19976;-78
2021/08/17 00:33:20;;;;;;;;;;;11.10;99.90;;;;;;5111771;28;19915;-78
2021/08/17 00:35:45;;;;;;;;;;;11.00;99.90;;;;;;5111663;28;19914;-78
2021/08/17 00:38:11;;;;;;;;;;;11.00;99.90;;;;;;5111349;28;19935;-78
2021/08/17 00:40:36;;;;;;;;;;;10.90;99.90;;;;;;5107056;28;19908;-78
2021/08/17 00:43:02;;;;;;;;;;;10.80;99.90;;;;;;5090589;28;20004;-78
2021/08/17 00:45:28;;;;;;;;;;;10.80;99.90;;;;;;5089698;28;20308;-78
2021/08/17 00:47:57;;;;;;;;;;;10.70;99.90;;;;;;5090839;28;20396;-78
2021/08/17 00:50:28;;;;;;;;;;;10.70;99.90;;;;;;5089729;28;19916;-78
2021/08/17 00:52:54;;;;;;;;;;;10.70;99.90;;;;;;5091188;28;19908;-78
2021/08/17 00:55:20;;;;;;;;;;;10.60;99.90;;;;;;5091068;28;19937;-78
2021/08/17 00:57:45;;;;;;;;;;;10.50;99.90;;;;;;5091207;28;19908;-78
2021/08/17 01:00:11;;;;;;;;;;;10.50;99.90;;;;;;5090873;28;20288;-79
2021/08/17 01:02:37;;;;;;;;;;;10.50;99.90;;;;;;5091222;28;19915;-78
2021/08/17 01:05:03;;;;;;;;;;;10.40;99.90;;;;;;5091004;28;19912;-79
2021/08/17 01:07:29;;;;;;;;;;;10.40;99.90;;;;;;5090619;28;19995;-79
2021/08/17 01:09:54;;;;;;;;;;;10.40;99.90;;;;;;5091198;28;20050;-79
2021/08/17 01:12:20;;;;;;;;;;;10.40;99.90;;;;;;5088537;28;19915;-79
2021/08/17 01:14:45;;;;;;;;;;;10.30;99.90;;;;;;5089436;28;20276;-79
2021/08/17 01:17:11;;;;;;;;;;;10.30;99.90;;;;;;5089172;28;19916;-79
2021/08/17 01:19:37;;;;;;;;;;;10.20;99.90;;;;;;5090950;28;19916;-79
2021/08/17 01:22:03;;;;;;;;;;;10.20;99.90;;;;;;5090942;28;19908;-79
2021/08/17 01:24:28;;;;;;;;;;;10.10;99.90;;;;;;5090948;28;20277;-79
2021/08/17 01:26:54;;;;;;;;;;;10.10;99.90;;;;;;5090445;28;19908;-79
2021/08/17 01:29:21;;;;;;;;;;;10.00;99.90;;;;;;5090664;28;19916;-78
2021/08/17 01:31:46;;;;;;;;;;;10.00;99.90;;;;;;5090817;28;19977;-78
2021/08/17 01:34:12;;;;;;;;;;;9.90;99.90;;;;;;5090817;28;20370;-78
2021/08/17 01:36:38;;;;;;;;;;;9.90;99.90;;;;;;5091701;28;19912;-78
2021/08/17 01:39:04;;;;;;;;;;;9.90;99.90;;;;;;5094701;28;20285;-78
2021/08/17 01:41:29;;;;;;;;;;;9.90;99.90;;;;;;5086043;28;19913;-78
2021/08/17 01:43:55;;;;;;;;;;;9.80;99.90;;;;;;5091433;28;20288;-78
2021/08/17 01:46:21;;;;;;;;;;;9.80;99.90;;;;;;5093422;28;19922;-78
2021/08/17 01:48:47;;;;;;;;;;;9.80;99.90;;;;;;5091160;28;19908;-79
2021/08/17 01:51:12;;;;;;;;;;;9.70;99.90;;;;;;5093939;28;19912;-79
2021/08/17 01:53:38;;;;;;;;;;;9.70;99.90;;;;;;5094066;28;19914;-79
2021/08/17 01:56:10;;;;;;;;;;;9.70;99.90;;;;;;5093561;28;19912;-79
2021/08/17 01:58:36;;;;;;;;;;;9.70;99.90;;;;;;5093917;28;19908;-79
2021/08/17 02:01:03;;;;;;;;;;;9.60;99.90;;;;;;5093813;28;19954;-79
2021/08/17 02:03:28;;;;;;;;;;;9.50;99.90;;;;;;5093992;28;19908;-79
2021/08/17 02:05:54;;;;;;;;;;;9.50;99.90;;;;;;5093826;28;19915;-78
2021/08/17 02:08:19;;;;;;;;;;;9.40;99.90;;;;;;5093519;28;19912;-78
2021/08/17 02:10:45;;;;;;;;;;;9.40;99.90;;;;;;5093643;28;19939;-79
2021/08/17 02:13:10;;;;;;;;;;;9.40;99.90;;;;;;5093662;28;20521;-79
2021/08/17 02:15:36;;;;;;;;;;;9.40;99.90;;;;;;5093700;28;19946;-79
2021/08/17 02:18:01;;;;;;;;;;;9.30;99.90;;;;;;5092885;28;20010;-79
2021/08/17 02:20:27;;;;;;;;;;;9.20;99.90;;;;;;5113716;28;19915;-79
2021/08/17 02:22:52;;;;;;;;;;;9.20;99.90;;;;;;5114022;28;19908;-78
2021/08/17 02:25:18;;;;;;;;;;;9.30;99.90;;;;;;5113848;28;20280;-78
2021/08/17 02:27:44;;;;;;;;;;;9.30;99.90;;;;;;5113234;28;19912;-78
2021/08/17 02:30:09;;;;;;;;;;;9.30;99.90;;;;;;5113588;28;20014;-78
2021/08/17 02:32:35;;;;;;;;;;;9.20;99.90;;;;;;5113968;28;19914;-78
2021/08/17 02:35:01;;;;;;;;;;;9.30;99.90;;;;;;5113728;28;20477;-78
2021/08/17 02:37:26;;;;;;;;;;;9.20;99.90;;;;;;5113213;28;19908;-78
2021/08/17 02:39:52;;;;;;;;;;;9.20;99.90;;;;;;5111813;28;20417;-78
2021/08/17 02:42:17;;;;;;;;;;;9.20;99.90;;;;;;5098487;28;20002;-79
2021/08/17 02:44:43;;;;;;;;;;;9.10;99.90;;;;;;5111734;28;20356;-79
2021/08/17 02:47:09;;;;;;;;;;;9.10;99.90;;;;;;5112000;28;19915;-79
2021/08/17 02:49:35;;;;;;;;;;;9.10;99.90;;;;;;5113573;28;20356;-78
2021/08/17 02:52:04;;;;;;;;;;;9.00;99.90;;;;;;5113357;28;20231;-78
2021/08/17 02:54:30;;;;;;;;;;;9.00;99.90;;;;;;5113102;28;20060;-79
2021/08/17 02:56:55;;;;;;;;;;;8.90;99.90;;;;;;5112687;28;19968;-79
2021/08/17 02:59:20;;;;;;;;;;;8.90;99.90;;;;;;5113482;28;19908;-79
2021/08/17 03:01:46;;;;;;;;;;;8.90;99.90;;;;;;5113000;28;19951;-79
2021/08/17 03:04:11;;;;;;;;;;;8.90;99.90;;;;;;5113148;28;19915;-79
2021/08/17 03:06:37;;;;;;;;;;;8.80;99.90;;;;;;5112735;28;19911;-79
2021/08/17 03:09:02;;;;;;;;;;;8.80;99.90;;;;;;5112895;28;19916;-79
2021/08/17 03:11:28;;;;;;;;;;;8.80;99.90;;;;;;5102478;28;20023;-78
2021/08/17 03:13:53;;;;;;;;;;;8.80;99.90;;;;;;5090593;28;19908;-78
2021/08/17 03:16:19;;;;;;;;;;;8.70;99.90;;;;;;5090647;28;19927;-79
2021/08/17 03:18:44;;;;;;;;;;;8.70;99.90;;;;;;5092447;28;20388;-79
2021/08/17 03:21:10;;;;;;;;;;;8.70;99.90;;;;;;5092251;28;19909;-78
2021/08/17 03:23:35;;;;;;;;;;;8.70;99.90;;;;;;5092359;28;19998;-78
2021/08/17 03:26:01;;;;;;;;;;;8.70;99.90;;;;;;5090568;28;19923;-78
2021/08/17 03:28:26;;;;;;;;;;;8.60;99.90;;;;;;5092221;28;20375;-78
2021/08/17 03:30:52;;;;;;;;;;;8.60;99.90;;;;;;5092087;28;19915;-78
2021/08/17 03:33:17;;;;;;;;;;;8.60;99.90;;;;;;5092176;28;19912;-78
2021/08/17 03:35:43;;;;;;;;;;;8.60;99.90;;;;;;5092168;28;19908;-79
2021/08/17 03:38:08;;;;;;;;;;;8.60;99.90;;;;;;5091673;28;19912;-78
2021/08/17 03:40:34;;;;;;;;;;;8.60;99.90;;;;;;5091658;28;20410;-78
2021/08/17 03:42:59;;;;;;;;;;;8.50;99.90;;;;;;5084297;28;19998;-79
2021/08/17 03:45:25;;;;;;;;;;;8.50;99.90;;;;;;5090387;28;19912;-79
2021/08/17 03:47:51;;;;;;;;;;;8.50;99.90;;;;;;5091987;28;19934;-79
2021/08/17 03:50:17;;;;;;;;;;;8.50;99.90;;;;;;5091668;28;19955;-79
2021/08/17 03:52:43;;;;;;;;;;;8.40;99.90;;;;;;5091773;28;19914;-78
2021/08/17 03:55:09;;;;;;;;;;;8.40;99.90;;;;;;5091642;28;19908;-79
2021/08/17 03:57:35;;;;;;;;;;;8.40;99.90;;;;;;5091364;28;19908;-79
2021/08/17 04:00:01;;;;;;;;;;;8.40;99.90;;;;;;5091739;28;19908;-78
2021/08/17 04:02:28;;;;;;;;;;;8.40;99.90;;;;;;5091659;28;20380;-79
2021/08/17 04:04:54;;;;;;;;;;;8.40;99.90;;;;;;5091715;28;19954;-78
2021/08/17 04:07:20;;;;;;;;;;;8.30;99.90;;;;;;5091164;28;19912;-78
2021/08/17 04:09:45;;;;;;;;;;;8.30;99.90;;;;;;5091433;28;20474;-79
2021/08/17 04:12:11;;;;;;;;;;;8.30;99.90;;;;;;5084655;28;19912;-79
2021/08/17 04:14:36;;;;;;;;;;;8.30;99.90;;;;;;5091400;28;19908;-79
2021/08/17 04:17:02;;;;;;;;;;;8.20;99.90;;;;;;5089893;28;19908;-79
2021/08/17 04:19:27;;;;;;;;;;;8.20;99.90;;;;;;5091389;28;20331;-79
2021/08/17 04:21:53;;;;;;;;;;;8.20;99.90;;;;;;5091371;28;19995;-79
2021/08/17 04:24:19;;;;;;;;;;;8.20;99.90;;;;;;5091197;28;20368;-79
2021/08/17 04:26:44;;;;;;;;;;;8.20;99.90;;;;;;5089772;28;19916;-78
2021/08/17 04:29:10;;;;;;;;;;;8.10;99.90;;;;;;5091704;28;20424;-78
2021/08/17 04:31:36;;;;;;;;;;;8.20;99.90;;;;;;5091201;28;19918;-79
2021/08/17 04:34:01;;;;;;;;;;;8.20;99.90;;;;;;5091289;28;19909;-78
2021/08/17 04:36:27;;;;;;;;;;;8.20;99.90;;;;;;5090677;28;19908;-78
2021/08/17 04:38:52;;;;;;;;;;;8.20;99.90;;;;;;5091128;28;20394;-78
2021/08/17 04:41:18;;;;;;;;;;;8.20;99.90;;;;;;5087493;28;19916;-78
2021/08/17 04:43:43;;;;;;;;;;;8.20;99.90;;;;;;5088022;28;20380;-78
2021/08/17 04:46:09;;;;;;;;;;;8.20;99.90;;;;;;5089517;28;19993;-78
2021/08/17 04:48:34;;;;;;;;;;;8.20;99.90;;;;;;5090647;28;19915;-79
2021/08/17 04:51:00;;;;;;;;;;;8.20;99.90;;;;;;5090806;28;19915;-79
2021/08/17 04:53:26;;;;;;;;;;;8.20;99.90;;;;;;5091024;28;19915;-79
2021/08/17 04:55:52;;;;;;;;;;;8.30;99.90;;;;;;5090966;28;19908;-79
2021/08/17 04:58:17;;;;;;;;;;;8.30;99.90;;;;;;5090769;28;20006;-79
2021/08/17 05:00:44;;;;;;;;;;;8.30;99.90;;;;;;5091057;28;19943;-79
2021/08/17 05:03:09;;;;;;;;;;;8.40;99.90;;;;;;5090946;28;19912;-79
2021/08/17 05:05:35;;;;;;;;;;;8.40;99.90;;;;;;5090945;28;19908;-78
2021/08/17 05:08:07;;;;;;;;;;;8.40;99.90;;;;;;5090510;28;19931;-78
2021/08/17 05:10:33;;;;;;;;;;;8.40;99.90;;;;;;5091973;28;19912;-79
2021/08/17 05:13:00;;;;;;;;;;;8.50;99.90;;;;;;5094625;28;19915;-78
2021/08/17 05:15:26;;;;;;;;;;;8.60;99.90;;;;;;5094770;28;20394;-79
2021/08/17 05:17:51;;;;;;;;;;;8.60;99.90;;;;;;5094690;28;19908;-78
2021/08/17 05:20:17;;;;;;;;;;;8.60;99.90;;;;;;5094740;28;19908;-79
2021/08/17 05:22:42;;;;;;;;;;;8.70;99.90;;;;;;5094705;28;19976;-78
2021/08/17 05:25:08;;;;;;;;;;;8.70;99.90;;;;;;5094839;28;20455;-78
2021/08/17 05:27:33;;;;;;;;;;;8.80;99.90;;;;;;5094253;28;19931;-79
2021/08/17 05:29:59;;;;;;;;;;;8.90;99.90;;;;;;5094539;28;19916;-79
2021/08/17 05:32:25;;;;;;;;;;;9.00;99.90;;;;;;5094494;28;20006;-78
2021/08/17 05:34:50;;;;;;;;;;;9.10;99.90;;;;;;5094538;28;19909;-79
2021/08/17 05:37:16;;;;;;;;;;;9.20;99.90;;;;;;5094146;28;20395;-78
2021/08/17 05:39:44;;;;;;;;;;;9.20;99.90;;;;;;5093127;28;20285;-78
2021/08/17 05:42:10;;;;;;;;;;;9.30;99.90;;;;;;5098520;28;19911;-79
2021/08/17 05:44:39;;;;;;;;;;;9.40;99.90;;;;;;5114592;28;19908;-78
2021/08/17 05:47:05;;;;;;;;;;;9.50;99.90;;;;;;5114276;28;19916;-78
2021/08/17 05:49:30;;;;;;;;;;;9.50;99.90;;;;;;5114507;28;19918;-78
2021/08/17 05:51:56;;;;;;;;;;;9.60;99.90;;;;;;5114625;28;20313;-79
2021/08/17 05:54:23;;;;;;;;;;;9.60;99.90;;;;;;5114681;28;20378;-79
2021/08/17 05:56:49;;;;;;;;;;;9.70;99.90;;;;;;5114276;28;19931;-78
2021/08/17 05:59:14;;;;;;;;;;;9.80;99.90;;;;;;5114563;28;19907;-79
2021/08/17 06:01:40;;;;;;;;;;;9.90;99.90;;;;;;5114283;28;19965;-79
2021/08/17 06:04:05;;;;;;;;;;;9.90;99.90;;;;;;5114280;28;19915;-79
2021/08/17 06:06:31;;;;;;;;;;;10.00;99.90;;;;;;5113874;28;20352;-78
2021/08/17 06:08:56;;;;;;;;;;;10.20;99.90;;;;;;5114249;28;19908;-78
2021/08/17 06:11:22;;;;;;;;;;;10.30;99.90;;;;;;5109909;28;19953;-79
2021/08/17 06:13:48;;;;;;;;;;;10.40;99.90;;;;;;5094691;28;20400;-79
2021/08/17 06:16:14;;;;;;;;;;;10.60;99.90;;;;;;5112708;28;19957;-78
2021/08/17 06:18:39;;;;;;;;;;;10.80;99.90;;;;;;5112926;28;19912;-79
2021/08/17 06:21:05;;;;;;;;;;;10.80;99.90;;;;;;5114040;28;19911;-78
2021/08/17 06:23:30;;;;;;;;;;;10.90;99.90;;;;;;5113004;28;19911;-79
2021/08/17 06:25:56;;;;;;;;;;;11.00;99.90;;;;;;5114072;28;19915;-79
2021/08/17 06:28:21;;;;;;;;;;;11.10;99.90;;;;;;5113964;28;19907;-79
2021/08/17 06:30:47;;;;;;;;;;;11.10;99.90;;;;;;5114397;28;19911;-79
2021/08/17 06:33:12;;;;;;;;;;;11.20;99.90;;;;;;5113880;28;19951;-79
2021/08/17 06:35:38;;;;;;;;;;;11.20;99.90;;;;;;5114194;28;20273;-79
2021/08/17 06:38:03;;;;;;;;;;;11.20;99.90;;;;;;5113895;28;20011;-79
2021/08/17 06:40:29;;;;;;;;;;;11.30;99.90;;;;;;5114066;28;19960;-79
2021/08/17 06:42:54;;;;;;;;;;;11.30;99.90;;;;;;5107280;28;19947;-79
2021/08/17 06:45:20;;;;;;;;;;;11.30;99.90;;;;;;5111037;28;19912;-79
2021/08/17 06:47:50;;;;;;;;;;;11.40;99.90;;;;;;5091616;28;19908;-79
2021/08/17 06:50:16;;;;;;;;;;;11.50;99.90;;;;;;5093127;28;19938;-79
2021/08/17 06:52:43;;;;;;;;;;;11.60;99.90;;;;;;5102730;28;20377;-79
2021/08/17 06:55:09;;;;;;;;;;;11.60;99.90;;;;;;5090590;28;19956;-79
2021/08/17 06:57:34;;;;;;;;;;;11.70;99.90;;;;;;5098021;28;19943;-79
2021/08/17 07:00:00;;;;;;;;;;;11.80;99.90;;;;;;5114623;28;19911;-79
2021/08/17 07:02:25;;;;;;;;;;;11.80;99.90;;;;;;5113278;28;19908;-79
2021/08/17 07:04:51;;;;;;;;;;;11.90;99.90;;;;;;5112784;28;19958;-79
2021/08/17 07:07:16;;;;;;;;;;;12.00;99.90;;;;;;5112547;28;19915;-79
2021/08/17 07:09:41;;;;;;;;;;;12.00;99.90;;;;;;5112717;28;19919;-79
2021/08/17 07:12:07;;;;;;;;;;;12.10;99.90;;;;;;5099393;28;19908;-79
2021/08/17 07:14:33;;;;;;;;;;;12.10;99.90;;;;;;5111422;28;20385;-79
2021/08/17 07:16:58;;;;;;;;;;;12.30;99.90;;;;;;5095029;28;20337;-79
2021/08/17 07:19:23;;;;;;;;;;;12.40;99.90;;;;;;5090865;28;19954;-79
2021/08/17 07:21:49;;;;;;;;;;;12.90;99.90;;;;;;5092279;28;19927;-79
2021/08/17 07:24:14;;;;;;;;;;;14.20;99.90;;;;;;5092438;28;19915;-79
2021/08/17 07:26:40;;;;;;;;;;;15.50;99.90;;;;;;5092150;28;19908;-77
2021/08/17 07:29:06;;;;;;;;;;;16.70;99.90;;;;;;5093086;28;19908;-77
2021/08/17 07:31:34;;;;;;;;;;;17.80;99.90;;;;;;5093345;28;19931;-77
2021/08/17 07:34:02;;;;;;;;;;;18.60;99.90;;;;;;5092263;28;19912;-78
2021/08/17 07:36:28;;;;;;;;;;;19.20;99.90;;;;;;5091725;28;20390;-78
2021/08/17 07:38:53;;;;;;;;;;;19.80;99.90;;;;;;5090701;28;19909;-77
2021/08/17 07:41:19;;;;;;;;;;;20.20;99.90;;;;;;5077438;28;19978;-78
2021/08/17 07:43:44;;;;;;;;;;;20.40;99.90;;;;;;5090203;28;20292;-78
2021/08/17 07:46:10;;;;;;;;;;;20.50;99.90;;;;;;5091990;28;19920;-78
2021/08/17 07:48:35;;;;;;;;;;;20.60;99.90;;;;;;5090537;28;19999;-78
2021/08/17 07:51:01;;;;;;;;;;;20.80;99.90;;;;;;5092008;28;19962;-78
2021/08/17 07:53:26;;;;;;;;;;;20.90;99.90;;;;;;5091930;28;19916;-78
2021/08/17 07:55:52;;;;;;;;;;;20.90;99.90;;;;;;5082598;28;20361;-78
2021/08/17 07:58:17;;;;;;;;;;;21.20;99.90;;;;;;5091684;28;19908;-77
2021/08/17 08:00:43;;;;;;;;;;;21.20;99.90;;;;;;5089798;28;20011;-78
2021/08/17 08:03:08;;;;;;;;;;;20.80;99.90;;;;;;5091245;28;20295;-78
2021/08/17 08:05:34;;;;;;;;;;;20.50;99.90;;;;;;5090929;28;19908;-78
2021/08/17 08:07:59;;;;;;;;;;;20.70;99.90;;;;;;5092120;28;20330;-78
2021/08/17 08:10:25;;;;;;;;;;;20.00;99.90;;;;;;5091608;28;19958;-79
2021/08/17 08:12:50;;;;;;;;;;;20.50;99.90;;;;;;5084771;28;19951;-79
2021/08/17 08:15:16;;;;;;;;;;;20.60;99.90;;;;;;5091618;28;19916;-79
2021/08/17 08:17:41;;;;;;;;;;;20.30;99.90;;;;;;5090837;28;19915;-79
2021/08/17 08:20:07;;;;;;;;;;;20.10;99.90;;;;;;5091491;28;20006;-77
2021/08/17 08:22:33;;;;;;;;;;;19.90;99.90;;;;;;5091668;28;19908;-77
2021/08/17 08:24:59;;;;;;;;;;;19.60;99.90;;;;;;5090158;28;19995;-77
2021/08/17 08:27:24;;;;;;;;;;;19.30;99.90;;;;;;5091398;28;19950;-77
2021/08/17 08:29:50;;;;;;;;;;;19.70;99.90;;;;;;5091618;28;19916;-77
2021/08/17 08:32:15;;;;;;;;;;;20.30;99.90;;;;;;5091058;28;19908;-77
2021/08/17 08:34:41;;;;;;;;;;;20.80;99.90;;;;;;5091477;28;19908;-76
2021/08/17 08:37:06;;;;;;;;;;;21.50;99.90;;;;;;5090973;28;19909;-76
2021/08/17 08:39:33;;;;;;;;;;;21.90;99.90;;;;;;5091269;28;19908;-76
2021/08/17 08:41:59;;;;;;;;;;;22.00;98.70;;;;;;5084928;28;19908;-76
2021/08/17 08:44:24;;;;;;;;;;;21.00;99.40;;;;;;5091216;28;19908;-76
2021/08/17 08:46:50;;;;;;;;;;;20.30;99.90;;;;;;5094011;28;19920;-76
2021/08/17 08:49:16;;;;;;;;;;;19.60;99.90;;;;;;5095414;28;19912;-77
2021/08/17 08:51:42;;;;;;;;;;;19.10;99.90;;;;;;5095355;28;19915;-77
2021/08/17 08:54:08;;;;;;;;;;;19.00;99.90;;;;;;5089820;28;19908;-77
2021/08/17 08:56:34;;;;;;;;;;;18.60;99.90;;;;;;5082823;28;19934;-77
2021/08/17 08:58:59;;;;;;;;;;;18.40;99.90;;;;;;5094224;28;20212;-77
2021/08/17 09:01:25;;;;;;;;;;;18.00;99.90;;;;;;5094868;28;20400;-77
2021/08/17 09:03:51;;;;;;;;;;;17.50;99.90;;;;;;5095251;28;19961;-77
2021/08/17 09:06:21;;;;;;;;;;;17.40;99.90;;;;;;5094872;28;19951;-77
2021/08/17 09:08:48;;;;;;;;;;;17.20;99.90;;;;;;5095013;28;20413;-77
2021/08/17 09:11:20;;;;;;;;;;;17.20;99.90;;;;;;5094848;28;19912;-77
2021/08/17 09:13:47;;;;;;;;;;;17.40;99.90;;;;;;5093737;28;20379;-78
2021/08/17 09:16:29;;;;;;;;;;;18.00;99.90;;;;;;5094510;28;20369;-77
2021/08/17 09:18:55;;;;;;;;;;;18.00;99.90;;;;;;5094789;28;19995;-77
2021/08/17 09:21:38;;;;;;;;;;;17.80;99.90;;;;;;5094426;28;19962;-77
2021/08/17 09:24:24;;;;;;;;;;;17.70;99.90;;;;;;5094348;28;19908;-77
2021/08/17 09:26:51;;;;;;;;;;;17.30;99.90;;;;;;5094528;28;20334;-77
2021/08/17 09:29:21;;;;;;;;;;;16.90;99.90;;;;;;5094724;28;19919;-78
2021/08/17 09:31:46;;;;;;;;;;;16.90;99.90;;;;;;5094599;28;19908;-78
2021/08/17 09:34:12;;;;;;;;;;;16.90;99.90;;;;;;5094616;28;20284;-77
2021/08/17 09:36:38;;;;;;;;;;;16.80;99.90;;;;;;5094208;28;19954;-76
2021/08/17 09:39:04;;;;;;;;;;;16.40;99.90;;;;;;5093085;28;19916;-76
2021/08/17 09:41:30;;;;;;;;;;;16.30;99.90;;;;;;5092381;28;20311;-77
2021/08/17 09:43:57;;;;;;;;;;;16.50;99.90;;;;;;5095288;28;19915;-77
2021/08/17 09:46:41;;;;;;;;;;;16.90;99.90;;;;;;5114724;28;20086;-77
2021/08/17 09:49:31;;;;;;;;;;;17.70;99.90;;;;;;5114526;28;19908;-77
2021/08/17 09:51:58;;;;;;;;;;;18.20;99.90;;;;;;5114668;28;19907;-77
2021/08/17 09:54:24;;;;;;;;;;;18.30;99.90;;;;;;5097093;28;19916;-77
2021/08/17 09:56:54;;;;;;;;;;;18.30;99.30;;;;;;5084115;28;19912;-76
2021/08/17 09:59:20;;;;;;;;;;;18.00;99.90;;;;;;5094438;28;20375;-76
2021/08/17 10:01:46;;;;;;;;;;;18.10;99.90;;;;;;5100027;28;19908;-75
2021/08/17 10:04:13;;;;;;;;;;;17.90;99.30;;;;;;5095958;28;19912;-76
2021/08/17 10:06:39;;;;;;;;;;;17.60;99.70;;;;;;5093781;28;20300;-77
2021/08/17 10:09:05;;;;;;;;;;;17.30;99.90;;;;;;5093751;28;19954;-76
2021/08/17 10:11:30;;;;;;;;;;;17.30;99.90;;;;;;5087058;28;19912;-77
2021/08/17 10:13:56;;;;;;;;;;;17.00;99.80;;;;;;5094705;28;19915;-76
2021/08/17 10:16:22;;;;;;;;;;;17.00;99.90;;;;;;5114182;28;19908;-76
2021/08/17 10:18:48;;;;;;;;;;;16.90;99.90;;;;;;5114158;28;19914;-76
2021/08/17 10:21:17;;;;;;;;;;;16.80;99.90;;;;;;5114148;28;19982;-76
2021/08/17 10:23:44;;;;;;;;;;;16.70;99.90;;;;;;5114161;28;19908;-77
2021/08/17 10:26:25;;;;;;;;;;;16.50;99.90;;;;;;5113800;28;20006;-77
2021/08/17 10:28:51;;;;;;;;;;;16.40;99.90;;;;;;5113706;28;20376;-77
2021/08/17 10:31:18;;;;;;;;;;;16.50;99.90;;;;;;5113855;28;19919;-76
2021/08/17 10:34:02;;;;;;;;;;;17.40;99.90;;;;;;5113976;28;19908;-75
2021/08/17 10:36:29;;;;;;;;;;;18.00;99.90;;;;;;5114083;28;20369;-77
2021/08/17 10:38:55;;;;;;;;;;;18.50;99.90;;;;;;5113771;28;19922;-77
2021/08/17 10:41:25;;;;;;;;;;;18.70;99.90;;;;;;5113409;28;19912;-76
2021/08/17 10:43:50;;;;;;;;;;;18.70;99.40;;;;;;5090977;28;20250;-77
2021/08/17 10:46:16;;;;;;;;;;;19.00;99.90;;;;;;5092704;28;19923;-77
2021/08/17 10:48:51;;;;;;;;;;;18.90;99.50;;;;;;5093543;28;20280;-77
2021/08/17 10:51:19;;;;;;;;;;;18.80;98.80;;;;;;5092967;28;19920;-77
2021/08/17 10:53:45;;;;;;;;;;;18.50;98.20;;;;;;5089326;28;19909;-77
2021/08/17 10:56:22;;;;;;;;;;;18.10;98.30;;;;;;5077809;28;19916;-77
2021/08/17 10:58:56;;;;;;;;;;;17.90;99.90;;;;;;5089270;28;19908;-76
2021/08/17 11:01:31;;;;;;;;;;;18.10;99.90;;;;;;5092891;28;19912;-77
2021/08/17 11:03:57;;;;;;;;;;;18.30;99.90;;;;;;5093531;28;19915;-78
2021/08/17 11:06:35;;;;;;;;;;;18.60;99.90;;;;;;5092170;28;20011;-77
2021/08/17 11:09:02;;;;;;;;;;;18.80;99.00;;;;;;5092200;28;19912;-77
2021/08/17 11:11:27;;;;;;;;;;;18.90;99.70;;;;;;5092347;28;20300;-77
2021/08/17 11:14:12;;;;;;;;;;;19.30;99.90;;;;;;5091475;28;19908;-77
2021/08/17 11:16:42;;;;;;;;;;;20.00;99.10;;;;;;5092879;28;19962;-77
2021/08/17 11:19:08;;;;;;;;;;;19.90;99.40;;;;;;5093004;28;19908;-77
2021/08/17 11:21:36;;;;;;;;;;;20.70;98.70;;;;;;5093197;28;20418;-77
2021/08/17 11:24:06;;;;;;;;;;;21.30;98.10;;;;;;5093011;28;19908;-77
2021/08/17 11:26:32;;;;;;;;;;;21.20;95.90;;;;;;5092718;28;19908;-78
2021/08/17 11:28:57;;;;;;;;;;;20.90;97.50;;;;;;5093142;28;19915;-77
2021/08/17 11:31:23;;;;;;;;;;;21.00;97.70;;;;;;5092547;28;19919;-78
2021/08/17 11:33:48;;;;;;;;;;;21.40;95.50;;;;;;5093036;28;20434;-78
2021/08/17 11:36:21;;;;;;;;;;;21.50;95.40;;;;;;5092703;28;19908;-78
2021/08/17 11:38:47;;;;;;;;;;;21.60;95.90;;;;;;5092747;28;19909;-77
2021/08/17 11:41:28;;;;;;;;;;;21.30;93.80;;;;;;5092959;28;19960;-78
2021/08/17 11:44:09;;;;;;;;;;;20.80;96.20;;;;;;5090728;28;20007;-77
2021/08/17 11:46:35;;;;;;;;;;;21.20;98.60;;;;;;5092234;28;20285;-78
2021/08/17 11:49:19;;;;;;;;;;;21.80;95.40;;;;;;5092768;28;19908;-78
2021/08/17 11:51:45;;;;;;;;;;;22.40;96.20;;;;;;5092419;28;19919;-78
2021/08/17 11:54:16;;;;;;;;;;;22.30;95.60;;;;;;5084917;28;19912;-78
2021/08/17 11:56:42;;;;;;;;;;;22.60;93.40;;;;;;5090213;28;20018;-78
2021/08/17 11:59:07;;;;;;;;;;;22.40;93.60;;;;;;5091714;28;20128;-78
2021/08/17 12:01:33;;;;;;;;;;;22.50;93.70;;;;;;5085893;28;19927;-78
2021/08/17 12:04:05;;;;;;;;;;;22.50;93.60;;;;;;5091719;28;19904;-78
2021/08/17 12:06:30;;;;;;;;;;;22.70;94.20;;;;;;5091563;28;19908;-78
2021/08/17 12:09:14;;;;;;;;;;;22.70;92.40;;;;;;5091444;28;25108;-78
2021/08/17 12:11:55;;;;;;;;;;;21.30;92.70;;;;;;5089457;28;19920;-78
2021/08/17 12:14:23;;;;;;;;;;;20.60;94.00;;;;;;5091484;28;19912;-79
2021/08/17 12:16:55;;;;;;;;;;;20.50;95.10;;;;;;5091655;28;19908;-78
2021/08/17 12:19:21;;;;;;;;;;;20.20;98.00;;;;;;5091025;28;19915;-78
2021/08/17 12:21:47;;;;;;;;;;;20.60;96.50;;;;;;5091131;28;19912;-78
2021/08/17 12:24:20;;;;;;;;;;;20.70;97.70;;;;;;5091687;28;19908;-78
2021/08/17 12:26:53;;;;;;;;;;;20.90;96.00;;;;;;5091403;28;19944;-78
2021/08/17 12:29:23;;;;;;;;;;;21.20;94.70;;;;;;5091785;28;19915;-78
2021/08/17 12:31:49;;;;;;;;;;;21.40;95.80;;;;;;5090103;28;20326;-78
2021/08/17 12:34:14;;;;;;;;;;;21.90;95.90;;;;;;5091475;28;19912;-78
2021/08/17 12:36:40;;;;;;;;;;;22.10;95.40;;;;;;5091408;28;19912;-78
2021/08/17 12:39:10;;;;;;;;;;;21.60;93.80;;;;;;5091313;28;19908;-78
2021/08/17 12:41:37;;;;;;;;;;;21.10;94.20;;;;;;5089348;28;19908;-78
2021/08/17 12:44:14;;;;;;;;;;;21.00;94.20;;;;;;5090707;28;19915;-78
2021/08/17 12:47:15;;;;;;;;;;;20.90;96.20;;;;;;5090871;28;19920;-78
2021/08/17 12:49:42;;;;;;;;;;;21.40;94.50;;;;;;5048467;28;19912;-79
2021/08/17 12:52:31;;;;;;;;;;;21.80;92.90;;;;;;5082374;28;20388;-78
2021/08/17 12:55:03;;;;;;;;;;;22.10;94.10;;;;;;5087036;28;19908;-78
2021/08/17 12:57:29;;;;;;;;;;;21.70;93.30;;;;;;5084559;28;19908;-78
2021/08/17 12:59:56;;;;;;;;;;;21.10;92.40;;;;;;5110114;28;19952;-78
2021/08/17 13:02:22;;;;;;;;;;;20.70;94.50;;;;;;5111199;28;19908;-78
2021/08/17 13:04:48;;;;;;;;;;;20.70;94.50;;;;;;5111437;28;20319;-78
2021/08/17 13:07:13;;;;;;;;;;;21.10;95.80;;;;;;5111016;28;19949;-78
2021/08/17 13:09:39;;;;;;;;;;;21.50;94.30;;;;;;5111388;28;19957;-78
2021/08/17 13:12:05;;;;;;;;;;;21.60;95.50;;;;;;5103601;28;19912;-78
2021/08/17 13:14:30;;;;;;;;;;;21.60;95.90;;;;;;5090911;28;20273;-78
2021/08/17 13:16:56;;;;;;;;;;;21.60;95.20;;;;;;5090917;28;19915;-78
2021/08/17 13:19:22;;;;;;;;;;;21.50;95.10;;;;;;5091051;28;19951;-78
2021/08/17 13:21:47;;;;;;;;;;;21.60;95.10;;;;;;5090774;28;19951;-78
2021/08/17 13:24:13;;;;;;;;;;;21.70;93.40;;;;;;5090908;28;20343;-78
2021/08/17 13:26:38;;;;;;;;;;;21.70;95.70;;;;;;5091261;28;19998;-78
2021/08/17 13:29:05;;;;;;;;;;;21.50;94.10;;;;;;5091198;28;20006;-78
2021/08/17 13:31:30;;;;;;;;;;;21.40;95.20;;;;;;5091792;28;19920;-78
2021/08/17 13:33:56;;;;;;;;;;;21.40;94.90;;;;;;5094723;28;19909;-78
2021/08/17 13:36:21;;;;;;;;;;;21.10;93.20;;;;;;5093890;28;19915;-78
2021/08/17 13:38:47;;;;;;;;;;;21.00;94.50;;;;;;5094361;28;20420;-78
2021/08/17 13:41:12;;;;;;;;;;;21.00;93.70;;;;;;5094402;28;19951;-78
2021/08/17 13:43:38;;;;;;;;;;;20.50;94.90;;;;;;5090922;28;19915;-78
2021/08/17 13:46:04;;;;;;;;;;;20.00;94.30;;;;;;5091777;28;20006;-78
2021/08/17 13:48:29;;;;;;;;;;;20.00;94.20;;;;;;5091754;28;19908;-78
2021/08/17 13:50:55;;;;;;;;;;;19.80;95.20;;;;;;5093015;28;19912;-77
2021/08/17 13:53:20;;;;;;;;;;;19.70;95.70;;;;;;5093392;28;20317;-78
2021/08/17 13:55:46;;;;;;;;;;;19.70;95.20;;;;;;5080752;28;20364;-78
2021/08/17 13:58:11;;;;;;;;;;;19.70;94.90;;;;;;5093613;28;19966;-78
2021/08/17 14:00:37;;;;;;;;;;;19.50;95.30;;;;;;5088303;28;19922;-78
2021/08/17 14:03:03;;;;;;;;;;;19.70;98.00;;;;;;5093551;28;19931;-78
2021/08/17 14:05:28;;;;;;;;;;;19.70;97.90;;;;;;5094026;28;19995;-78
2021/08/17 14:07:54;;;;;;;;;;;19.80;97.90;;;;;;5093568;28;19908;-78
2021/08/17 14:10:19;;;;;;;;;;;19.60;94.70;;;;;;5093778;28;19998;-78
2021/08/17 14:12:45;;;;;;;;;;;19.30;95.00;;;;;;5091444;28;19908;-78
2021/08/17 14:15:11;;;;;;;;;;;19.30;95.70;;;;;;5093741;28;19912;-78
2021/08/17 14:17:36;;;;;;;;;;;19.30;96.80;;;;;;5093686;28;19950;-78
2021/08/17 14:20:03;;;;;;;;;;;19.40;96.40;;;;;;5093611;28;19916;-78